sensor_id;sensor_type;location;lat;lon;timestamp;P1;durP1;ratioP1;P2;durP2;ratioP2
51810;SDS011;52468;40.116;18.296;2024-02-28T00:01:20;11.70;;;2.58;;
51810;SDS011;52468;40.116;18.296;2024-02-28T00:04:03;10.30;;;2.90;;
51810;SDS011;52468;40.116;18.296;2024-02-28T00:06:34;9.37;;;3.60;;
51810;SDS011;52468;40.116;18.296;2024-02-28T00:09:03;17.53;;;5.30;;
51810;SDS011;52468;40.116;18.296;2024-02-28T00:11:33;14.10;;;3.93;;
51810;SDS011;52468;40.116;18.296;2024-02-28T00:14:01;11.40;;;3.47;;
51810;SDS011;52468;40.116;18.296;2024-02-28T00:16:30;11.57;;;3.47;;
51810;SDS011;52468;40.116;18.296;2024-02-28T00:19:00;15.23;;;4.20;;
51810;SDS011;52468;40.116;18.296;2024-02-28T00:21:29;10.90;;;4.17;;
51810;SDS011;52468;40.116;18.296;2024-02-28T00:23:59;12.90;;;3.00;;
51810;SDS011;52468;40.116;18.296;2024-02-28T00:26:29;9.00;;;3.60;;
51810;SDS011;52468;40.116;18.296;2024-02-28T00:28:58;9.73;;;2.90;;
51810;SDS011;52468;40.116;18.296;2024-02-28T00:31:26;18.53;;;4.63;;
51810;SDS011;52468;40.116;18.296;2024-02-28T00:33:54;14.07;;;3.87;;
51810;SDS011;52468;40.116;18.296;2024-02-28T00:36:22;10.00;;;3.30;;
51810;SDS011;52468;40.116;18.296;2024-02-28T00:38:50;15.60;;;3.87;;
51810;SDS011;52468;40.116;18.296;2024-02-28T00:41:18;12.67;;;5.33;;
51810;SDS011;52468;40.116;18.296;2024-02-28T00:43:45;15.77;;;3.50;;
51810;SDS011;52468;40.116;18.296;2024-02-28T00:46:13;9.83;;;4.20;;
51810;SDS011;52468;40.116;18.296;2024-02-28T00:48:41;19.03;;;3.60;;
51810;SDS011;52468;40.116;18.296;2024-02-28T00:51:09;16.07;;;4.33;;
51810;SDS011;52468;40.116;18.296;2024-02-28T00:53:37;10.80;;;2.93;;
51810;SDS011;52468;40.116;18.296;2024-02-28T00:56:06;12.43;;;3.70;;
51810;SDS011;52468;40.116;18.296;2024-02-28T00:58:34;14.47;;;3.83;;
51810;SDS011;52468;40.116;18.296;2024-02-28T01:01:02;11.20;;;3.10;;
51810;SDS011;52468;40.116;18.296;2024-02-28T01:03:30;19.23;;;3.50;;
51810;SDS011;52468;40.116;18.296;2024-02-28T01:05:58;16.47;;;4.63;;
51810;SDS011;52468;40.116;18.296;2024-02-28T01:08:28;10.40;;;2.40;;
51810;SDS011;52468;40.116;18.296;2024-02-28T01:10:56;13.57;;;2.93;;
51810;SDS011;52468;40.116;18.296;2024-02-28T01:13:24;14.43;;;3.47;;
51810;SDS011;52468;40.116;18.296;2024-02-28T01:15:52;11.33;;;2.90;;
51810;SDS011;52468;40.116;18.296;2024-02-28T01:18:21;13.33;;;4.77;;
51810;SDS011;52468;40.116;18.296;2024-02-28T01:20:49;11.03;;;4.27;;
51810;SDS011;52468;40.116;18.296;2024-02-28T01:23:19;16.47;;;4.17;;
51810;SDS011;52468;40.116;18.296;2024-02-28T01:25:47;12.53;;;4.13;;
51810;SDS011;52468;40.116;18.296;2024-02-28T01:28:15;17.07;;;4.03;;
51810;SDS011;52468;40.116;18.296;2024-02-28T01:30:42;17.43;;;3.73;;
51810;SDS011;52468;40.116;18.296;2024-02-28T01:33:10;11.03;;;3.33;;
51810;SDS011;52468;40.116;18.296;2024-02-28T01:35:40;11.13;;;4.37;;
51810;SDS011;52468;40.116;18.296;2024-02-28T01:38:08;17.40;;;3.90;;
51810;SDS011;52468;40.116;18.296;2024-02-28T01:40:35;8.07;;;3.60;;
51810;SDS011;52468;40.116;18.296;2024-02-28T01:43:04;10.37;;;3.47;;
51810;SDS011;52468;40.116;18.296;2024-02-28T01:45:34;15.43;;;4.43;;
51810;SDS011;52468;40.116;18.296;2024-02-28T01:48:02;10.80;;;4.27;;
51810;SDS011;52468;40.116;18.296;2024-02-28T01:50:35;12.43;;;3.17;;
51810;SDS011;52468;40.116;18.296;2024-02-28T01:53:05;15.90;;;4.10;;
51810;SDS011;52468;40.116;18.296;2024-02-28T01:55:36;9.93;;;3.90;;
51810;SDS011;52468;40.116;18.296;2024-02-28T01:58:04;10.73;;;4.57;;
51810;SDS011;52468;40.116;18.296;2024-02-28T02:00:34;14.70;;;4.47;;
51810;SDS011;52468;40.116;18.296;2024-02-28T02:03:02;16.67;;;3.83;;
51810;SDS011;52468;40.116;18.296;2024-02-28T02:05:30;16.70;;;4.10;;
51810;SDS011;52468;40.116;18.296;2024-02-28T02:07:58;14.97;;;4.77;;
51810;SDS011;52468;40.116;18.296;2024-02-28T02:10:27;12.93;;;3.50;;
51810;SDS011;52468;40.116;18.296;2024-02-28T02:12:55;13.30;;;3.93;;
51810;SDS011;52468;40.116;18.296;2024-02-28T02:15:31;17.43;;;5.10;;
51810;SDS011;52468;40.116;18.296;2024-02-28T02:17:59;18.27;;;5.67;;
51810;SDS011;52468;40.116;18.296;2024-02-28T02:20:27;20.93;;;4.20;;
51810;SDS011;52468;40.116;18.296;2024-02-28T02:22:59;21.02;;;3.78;;
51810;SDS011;52468;40.116;18.296;2024-02-28T02:25:27;11.57;;;4.37;;
51810;SDS011;52468;40.116;18.296;2024-02-28T02:27:55;8.83;;;3.53;;
51810;SDS011;52468;40.116;18.296;2024-02-28T02:30:23;12.47;;;3.93;;
51810;SDS011;52468;40.116;18.296;2024-02-28T02:32:51;11.07;;;4.03;;
51810;SDS011;52468;40.116;18.296;2024-02-28T02:35:19;13.27;;;3.50;;
51810;SDS011;52468;40.116;18.296;2024-02-28T02:37:46;15.63;;;3.33;;
51810;SDS011;52468;40.116;18.296;2024-02-28T02:40:15;11.17;;;3.00;;
51810;SDS011;52468;40.116;18.296;2024-02-28T02:42:43;17.63;;;4.63;;
51810;SDS011;52468;40.116;18.296;2024-02-28T02:45:11;14.03;;;4.33;;
51810;SDS011;52468;40.116;18.296;2024-02-28T02:47:39;16.60;;;4.80;;
51810;SDS011;52468;40.116;18.296;2024-02-28T02:50:07;14.43;;;3.37;;
51810;SDS011;52468;40.116;18.296;2024-02-28T02:52:35;13.90;;;3.60;;
51810;SDS011;52468;40.116;18.296;2024-02-28T02:55:03;11.63;;;4.37;;
51810;SDS011;52468;40.116;18.296;2024-02-28T02:57:31;12.63;;;3.73;;
51810;SDS011;52468;40.116;18.296;2024-02-28T03:00:00;15.03;;;3.67;;
51810;SDS011;52468;40.116;18.296;2024-02-28T03:02:27;16.70;;;4.17;;
51810;SDS011;52468;40.116;18.296;2024-02-28T03:04:55;17.00;;;5.10;;
51810;SDS011;52468;40.116;18.296;2024-02-28T03:07:23;13.53;;;4.27;;
51810;SDS011;52468;40.116;18.296;2024-02-28T03:09:51;12.20;;;3.47;;
51810;SDS011;52468;40.116;18.296;2024-02-28T03:12:19;21.43;;;5.10;;
51810;SDS011;52468;40.116;18.296;2024-02-28T03:14:49;17.03;;;4.87;;
51810;SDS011;52468;40.116;18.296;2024-02-28T03:17:16;11.93;;;3.53;;
51810;SDS011;52468;40.116;18.296;2024-02-28T03:19:44;14.77;;;3.43;;
51810;SDS011;52468;40.116;18.296;2024-02-28T03:22:12;17.57;;;3.83;;
51810;SDS011;52468;40.116;18.296;2024-02-28T03:24:40;18.47;;;3.53;;
51810;SDS011;52468;40.116;18.296;2024-02-28T03:27:08;14.73;;;3.70;;
51810;SDS011;52468;40.116;18.296;2024-02-28T03:29:36;13.90;;;3.90;;
51810;SDS011;52468;40.116;18.296;2024-02-28T03:32:04;12.23;;;3.53;;
51810;SDS011;52468;40.116;18.296;2024-02-28T03:34:32;19.13;;;3.97;;
51810;SDS011;52468;40.116;18.296;2024-02-28T03:37:00;15.90;;;4.00;;
51810;SDS011;52468;40.116;18.296;2024-02-28T03:39:29;14.90;;;3.63;;
51810;SDS011;52468;40.116;18.296;2024-02-28T03:41:57;16.80;;;3.90;;
51810;SDS011;52468;40.116;18.296;2024-02-28T03:44:25;12.17;;;3.60;;
51810;SDS011;52468;40.116;18.296;2024-02-28T03:46:53;16.77;;;4.07;;
51810;SDS011;52468;40.116;18.296;2024-02-28T03:49:21;10.37;;;3.67;;
51810;SDS011;52468;40.116;18.296;2024-02-28T03:51:48;15.90;;;4.63;;
51810;SDS011;52468;40.116;18.296;2024-02-28T03:54:17;12.23;;;3.87;;
51810;SDS011;52468;40.116;18.296;2024-02-28T03:56:45;14.93;;;5.13;;
51810;SDS011;52468;40.116;18.296;2024-02-28T03:59:12;25.47;;;6.33;;
51810;SDS011;52468;40.116;18.296;2024-02-28T04:01:40;15.20;;;3.53;;
51810;SDS011;52468;40.116;18.296;2024-02-28T04:04:08;13.70;;;5.43;;
51810;SDS011;52468;40.116;18.296;2024-02-28T04:06:36;16.80;;;3.40;;
51810;SDS011;52468;40.116;18.296;2024-02-28T04:09:05;11.17;;;4.10;;
51810;SDS011;52468;40.116;18.296;2024-02-28T04:11:33;10.47;;;5.10;;
51810;SDS011;52468;40.116;18.296;2024-02-28T04:14:01;11.43;;;3.93;;
51810;SDS011;52468;40.116;18.296;2024-02-28T04:16:30;12.40;;;3.60;;
51810;SDS011;52468;40.116;18.296;2024-02-28T04:18:58;9.97;;;4.20;;
51810;SDS011;52468;40.116;18.296;2024-02-28T04:21:25;16.47;;;4.40;;
51810;SDS011;52468;40.116;18.296;2024-02-28T04:23:53;13.80;;;5.17;;
51810;SDS011;52468;40.116;18.296;2024-02-28T04:26:22;11.13;;;3.53;;
51810;SDS011;52468;40.116;18.296;2024-02-28T04:28:50;13.20;;;3.07;;
51810;SDS011;52468;40.116;18.296;2024-02-28T04:31:17;16.53;;;3.20;;
51810;SDS011;52468;40.116;18.296;2024-02-28T04:33:45;6.83;;;3.00;;
51810;SDS011;52468;40.116;18.296;2024-02-28T04:36:13;15.47;;;3.83;;
51810;SDS011;52468;40.116;18.296;2024-02-28T04:38:43;9.67;;;4.80;;
51810;SDS011;52468;40.116;18.296;2024-02-28T04:41:11;11.67;;;4.00;;
51810;SDS011;52468;40.116;18.296;2024-02-28T04:43:40;10.43;;;4.77;;
51810;SDS011;52468;40.116;18.296;2024-02-28T04:46:08;13.87;;;2.73;;
51810;SDS011;52468;40.116;18.296;2024-02-28T04:48:35;17.97;;;5.00;;
51810;SDS011;52468;40.116;18.296;2024-02-28T04:51:03;9.43;;;3.27;;
51810;SDS011;52468;40.116;18.296;2024-02-28T04:53:31;7.80;;;4.43;;
51810;SDS011;52468;40.116;18.296;2024-02-28T04:55:59;20.47;;;4.50;;
51810;SDS011;52468;40.116;18.296;2024-02-28T04:58:27;15.37;;;3.10;;
51810;SDS011;52468;40.116;18.296;2024-02-28T05:00:55;14.93;;;4.43;;
51810;SDS011;52468;40.116;18.296;2024-02-28T05:03:23;13.60;;;4.27;;
51810;SDS011;52468;40.116;18.296;2024-02-28T05:05:52;11.00;;;3.37;;
51810;SDS011;52468;40.116;18.296;2024-02-28T05:08:20;13.80;;;3.53;;
51810;SDS011;52468;40.116;18.296;2024-02-28T05:10:49;15.70;;;4.23;;
51810;SDS011;52468;40.116;18.296;2024-02-28T05:13:17;15.97;;;3.60;;
51810;SDS011;52468;40.116;18.296;2024-02-28T05:15:46;15.07;;;3.93;;
51810;SDS011;52468;40.116;18.296;2024-02-28T05:18:13;22.43;;;4.03;;
51810;SDS011;52468;40.116;18.296;2024-02-28T05:20:41;12.97;;;4.53;;
51810;SDS011;52468;40.116;18.296;2024-02-28T05:23:09;11.80;;;4.17;;
51810;SDS011;52468;40.116;18.296;2024-02-28T05:25:37;15.20;;;3.30;;
51810;SDS011;52468;40.116;18.296;2024-02-28T05:28:06;11.27;;;4.13;;
51810;SDS011;52468;40.116;18.296;2024-02-28T05:30:34;16.00;;;4.93;;
51810;SDS011;52468;40.116;18.296;2024-02-28T05:33:01;14.60;;;4.00;;
51810;SDS011;52468;40.116;18.296;2024-02-28T05:35:29;13.63;;;4.13;;
51810;SDS011;52468;40.116;18.296;2024-02-28T05:37:58;16.30;;;3.93;;
51810;SDS011;52468;40.116;18.296;2024-02-28T05:40:26;8.23;;;3.13;;
51810;SDS011;52468;40.116;18.296;2024-02-28T05:42:54;10.23;;;3.40;;
51810;SDS011;52468;40.116;18.296;2024-02-28T05:45:22;8.50;;;3.37;;
51810;SDS011;52468;40.116;18.296;2024-02-28T05:47:50;13.60;;;3.73;;
51810;SDS011;52468;40.116;18.296;2024-02-28T05:50:18;16.80;;;4.80;;
51810;SDS011;52468;40.116;18.296;2024-02-28T05:52:46;12.30;;;4.10;;
51810;SDS011;52468;40.116;18.296;2024-02-28T05:55:14;12.47;;;3.87;;
51810;SDS011;52468;40.116;18.296;2024-02-28T05:57:42;11.37;;;3.63;;
51810;SDS011;52468;40.116;18.296;2024-02-28T06:00:10;8.03;;;3.47;;
51810;SDS011;52468;40.116;18.296;2024-02-28T06:02:38;10.27;;;3.17;;
51810;SDS011;52468;40.116;18.296;2024-02-28T06:05:06;9.40;;;4.17;;
51810;SDS011;52468;40.116;18.296;2024-02-28T06:07:34;8.43;;;3.33;;
51810;SDS011;52468;40.116;18.296;2024-02-28T06:10:03;7.73;;;3.90;;
51810;SDS011;52468;40.116;18.296;2024-02-28T06:12:31;15.60;;;3.90;;
51810;SDS011;52468;40.116;18.296;2024-02-28T06:14:59;16.67;;;4.57;;
51810;SDS011;52468;40.116;18.296;2024-02-28T06:17:26;14.73;;;3.53;;
51810;SDS011;52468;40.116;18.296;2024-02-28T06:19:54;17.57;;;6.37;;
51810;SDS011;52468;40.116;18.296;2024-02-28T06:22:22;10.70;;;5.03;;
51810;SDS011;52468;40.116;18.296;2024-02-28T06:24:50;7.93;;;3.93;;
51810;SDS011;52468;40.116;18.296;2024-02-28T06:27:18;18.03;;;5.13;;
51810;SDS011;52468;40.116;18.296;2024-02-28T06:29:46;15.13;;;4.27;;
51810;SDS011;52468;40.116;18.296;2024-02-28T06:32:15;11.23;;;3.03;;
51810;SDS011;52468;40.116;18.296;2024-02-28T06:34:43;18.27;;;4.20;;
51810;SDS011;52468;40.116;18.296;2024-02-28T06:37:10;8.53;;;4.23;;
51810;SDS011;52468;40.116;18.296;2024-02-28T06:39:38;10.87;;;4.97;;
51810;SDS011;52468;40.116;18.296;2024-02-28T06:42:06;10.57;;;3.20;;
51810;SDS011;52468;40.116;18.296;2024-02-28T06:44:34;8.80;;;3.30;;
51810;SDS011;52468;40.116;18.296;2024-02-28T06:47:02;8.53;;;3.57;;
51810;SDS011;52468;40.116;18.296;2024-02-28T06:49:30;9.07;;;3.33;;
51810;SDS011;52468;40.116;18.296;2024-02-28T06:51:58;7.27;;;3.50;;
51810;SDS011;52468;40.116;18.296;2024-02-28T06:54:28;8.20;;;2.20;;
51810;SDS011;52468;40.116;18.296;2024-02-28T06:56:56;8.27;;;3.53;;
51810;SDS011;52468;40.116;18.296;2024-02-28T06:59:24;4.93;;;2.43;;
51810;SDS011;52468;40.116;18.296;2024-02-28T07:01:52;6.47;;;2.50;;
51810;SDS011;52468;40.116;18.296;2024-02-28T07:04:20;4.67;;;1.80;;
51810;SDS011;52468;40.116;18.296;2024-02-28T07:06:48;14.67;;;2.90;;
51810;SDS011;52468;40.116;18.296;2024-02-28T07:09:16;6.77;;;2.47;;
51810;SDS011;52468;40.116;18.296;2024-02-28T07:11:44;6.07;;;1.93;;
51810;SDS011;52468;40.116;18.296;2024-02-28T07:14:12;13.07;;;3.50;;
51810;SDS011;52468;40.116;18.296;2024-02-28T07:16:41;11.13;;;2.80;;
51810;SDS011;52468;40.116;18.296;2024-02-28T07:19:09;5.87;;;2.33;;
51810;SDS011;52468;40.116;18.296;2024-02-28T07:21:36;17.90;;;3.83;;
51810;SDS011;52468;40.116;18.296;2024-02-28T07:24:04;2.93;;;1.57;;
51810;SDS011;52468;40.116;18.296;2024-02-28T07:26:33;5.80;;;2.40;;
51810;SDS011;52468;40.116;18.296;2024-02-28T07:29:01;7.13;;;2.10;;
51810;SDS011;52468;40.116;18.296;2024-02-28T07:31:29;11.70;;;2.20;;
51810;SDS011;52468;40.116;18.296;2024-02-28T07:33:56;7.17;;;2.17;;
51810;SDS011;52468;40.116;18.296;2024-02-28T07:36:24;5.70;;;2.17;;
51810;SDS011;52468;40.116;18.296;2024-02-28T07:38:52;10.20;;;1.83;;
51810;SDS011;52468;40.116;18.296;2024-02-28T07:41:20;6.57;;;2.00;;
51810;SDS011;52468;40.116;18.296;2024-02-28T07:43:49;4.63;;;2.07;;
51810;SDS011;52468;40.116;18.296;2024-02-28T07:46:17;4.23;;;1.70;;
51810;SDS011;52468;40.116;18.296;2024-02-28T07:48:44;8.00;;;2.10;;
51810;SDS011;52468;40.116;18.296;2024-02-28T07:51:12;9.13;;;2.03;;
51810;SDS011;52468;40.116;18.296;2024-02-28T07:53:40;5.47;;;1.50;;
51810;SDS011;52468;40.116;18.296;2024-02-28T07:56:15;9.17;;;2.30;;
51810;SDS011;52468;40.116;18.296;2024-02-28T07:58:46;7.47;;;2.03;;
51810;SDS011;52468;40.116;18.296;2024-02-28T08:01:14;7.27;;;2.70;;
51810;SDS011;52468;40.116;18.296;2024-02-28T08:03:43;6.40;;;2.37;;
51810;SDS011;52468;40.116;18.296;2024-02-28T08:06:11;6.40;;;1.87;;
51810;SDS011;52468;40.116;18.296;2024-02-28T08:08:39;8.40;;;2.83;;
51810;SDS011;52468;40.116;18.296;2024-02-28T08:11:07;4.73;;;1.70;;
51810;SDS011;52468;40.116;18.296;2024-02-28T08:13:35;4.37;;;2.20;;
51810;SDS011;52468;40.116;18.296;2024-02-28T08:16:03;7.50;;;2.57;;
51810;SDS011;52468;40.116;18.296;2024-02-28T08:18:31;5.23;;;2.20;;
51810;SDS011;52468;40.116;18.296;2024-02-28T08:21:00;5.07;;;2.33;;
51810;SDS011;52468;40.116;18.296;2024-02-28T08:23:31;7.37;;;2.23;;
51810;SDS011;52468;40.116;18.296;2024-02-28T08:25:58;4.50;;;2.03;;
51810;SDS011;52468;40.116;18.296;2024-02-28T08:28:26;5.07;;;3.00;;
51810;SDS011;52468;40.116;18.296;2024-02-28T08:30:54;6.53;;;2.80;;
51810;SDS011;52468;40.116;18.296;2024-02-28T08:33:22;5.57;;;2.53;;
51810;SDS011;52468;40.116;18.296;2024-02-28T08:35:50;7.90;;;3.77;;
51810;SDS011;52468;40.116;18.296;2024-02-28T08:38:18;6.70;;;2.50;;
51810;SDS011;52468;40.116;18.296;2024-02-28T08:40:46;11.07;;;2.80;;
51810;SDS011;52468;40.116;18.296;2024-02-28T08:43:14;6.30;;;2.77;;
51810;SDS011;52468;40.116;18.296;2024-02-28T08:45:42;8.73;;;2.90;;
51810;SDS011;52468;40.116;18.296;2024-02-28T08:48:10;10.63;;;4.00;;
51810;SDS011;52468;40.116;18.296;2024-02-28T08:50:38;12.43;;;3.67;;
51810;SDS011;52468;40.116;18.296;2024-02-28T08:53:06;6.77;;;2.50;;
51810;SDS011;52468;40.116;18.296;2024-02-28T08:55:35;11.50;;;3.40;;
51810;SDS011;52468;40.116;18.296;2024-02-28T08:58:03;6.33;;;2.23;;
51810;SDS011;52468;40.116;18.296;2024-02-28T09:00:31;6.23;;;2.83;;
51810;SDS011;52468;40.116;18.296;2024-02-28T09:02:59;9.03;;;3.20;;
51810;SDS011;52468;40.116;18.296;2024-02-28T09:05:27;8.37;;;2.57;;
51810;SDS011;52468;40.116;18.296;2024-02-28T09:07:55;10.03;;;3.30;;
51810;SDS011;52468;40.116;18.296;2024-02-28T09:10:24;4.27;;;2.67;;
51810;SDS011;52468;40.116;18.296;2024-02-28T09:12:52;4.00;;;1.97;;
51810;SDS011;52468;40.116;18.296;2024-02-28T09:15:20;5.00;;;2.60;;
51810;SDS011;52468;40.116;18.296;2024-02-28T09:17:48;10.50;;;3.60;;
51810;SDS011;52468;40.116;18.296;2024-02-28T09:20:16;6.97;;;2.40;;
51810;SDS011;52468;40.116;18.296;2024-02-28T09:22:44;9.00;;;2.83;;
51810;SDS011;52468;40.116;18.296;2024-02-28T09:25:12;8.00;;;3.23;;
51810;SDS011;52468;40.116;18.296;2024-02-28T09:27:42;7.87;;;2.70;;
51810;SDS011;52468;40.116;18.296;2024-02-28T09:30:10;9.53;;;2.40;;
51810;SDS011;52468;40.116;18.296;2024-02-28T09:32:38;6.00;;;2.57;;
51810;SDS011;52468;40.116;18.296;2024-02-28T09:35:06;5.23;;;2.83;;
51810;SDS011;52468;40.116;18.296;2024-02-28T09:37:35;8.53;;;2.80;;
51810;SDS011;52468;40.116;18.296;2024-02-28T09:40:04;6.93;;;3.30;;
51810;SDS011;52468;40.116;18.296;2024-02-28T09:42:35;4.30;;;1.90;;
51810;SDS011;52468;40.116;18.296;2024-02-28T09:45:04;6.07;;;2.73;;
51810;SDS011;52468;40.116;18.296;2024-02-28T09:47:35;5.33;;;3.30;;
51810;SDS011;52468;40.116;18.296;2024-02-28T09:50:04;6.67;;;3.53;;
51810;SDS011;52468;40.116;18.296;2024-02-28T09:52:32;9.90;;;3.43;;
51810;SDS011;52468;40.116;18.296;2024-02-28T09:55:00;6.93;;;3.03;;
51810;SDS011;52468;40.116;18.296;2024-02-28T09:57:28;6.47;;;3.50;;
51810;SDS011;52468;40.116;18.296;2024-02-28T09:59:58;7.20;;;3.27;;
51810;SDS011;52468;40.116;18.296;2024-02-28T10:02:31;7.20;;;3.77;;
51810;SDS011;52468;40.116;18.296;2024-02-28T10:05:01;7.00;;;2.57;;
51810;SDS011;52468;40.116;18.296;2024-02-28T10:07:31;8.10;;;3.20;;
51810;SDS011;52468;40.116;18.296;2024-02-28T10:09:59;10.23;;;3.90;;
51810;SDS011;52468;40.116;18.296;2024-02-28T10:12:31;6.10;;;2.90;;
51810;SDS011;52468;40.116;18.296;2024-02-28T10:14:59;8.80;;;4.00;;
51810;SDS011;52468;40.116;18.296;2024-02-28T10:17:28;9.83;;;4.43;;
51810;SDS011;52468;40.116;18.296;2024-02-28T10:19:57;12.10;;;2.87;;
51810;SDS011;52468;40.116;18.296;2024-02-28T10:22:26;7.17;;;3.93;;
51810;SDS011;52468;40.116;18.296;2024-02-28T10:24:57;6.97;;;2.67;;
51810;SDS011;52468;40.116;18.296;2024-02-28T10:27:26;5.27;;;2.70;;
51810;SDS011;52468;40.116;18.296;2024-02-28T10:29:54;6.07;;;2.40;;
51810;SDS011;52468;40.116;18.296;2024-02-28T10:32:22;5.20;;;2.40;;
51810;SDS011;52468;40.116;18.296;2024-02-28T10:34:50;9.77;;;2.97;;
51810;SDS011;52468;40.116;18.296;2024-02-28T10:37:18;4.57;;;2.60;;
51810;SDS011;52468;40.116;18.296;2024-02-28T10:39:48;7.90;;;3.47;;
51810;SDS011;52468;40.116;18.296;2024-02-28T10:42:18;10.60;;;3.07;;
51810;SDS011;52468;40.116;18.296;2024-02-28T10:44:49;10.57;;;2.60;;
51810;SDS011;52468;40.116;18.296;2024-02-28T10:47:20;4.17;;;2.53;;
51810;SDS011;52468;40.116;18.296;2024-02-28T10:49:49;4.37;;;2.20;;
51810;SDS011;52468;40.116;18.296;2024-02-28T10:52:18;6.87;;;2.70;;
51810;SDS011;52468;40.116;18.296;2024-02-28T10:54:52;3.65;;;3.35;;
51810;SDS011;52468;40.116;18.296;2024-02-28T10:57:25;4.20;;;2.67;;
51810;SDS011;52468;40.116;18.296;2024-02-28T10:59:54;11.00;;;3.50;;
51810;SDS011;52468;40.116;18.296;2024-02-28T11:02:24;10.43;;;3.27;;
51810;SDS011;52468;40.116;18.296;2024-02-28T11:04:53;4.37;;;2.43;;
51810;SDS011;52468;40.116;18.296;2024-02-28T11:07:22;8.50;;;2.87;;
51810;SDS011;52468;40.116;18.296;2024-02-28T11:09:53;5.37;;;2.57;;
51810;SDS011;52468;40.116;18.296;2024-02-28T11:12:29;6.15;;;1.85;;
51810;SDS011;52468;40.116;18.296;2024-02-28T11:14:57;8.00;;;3.00;;
51810;SDS011;52468;40.116;18.296;2024-02-28T11:17:30;5.88;;;2.40;;
51810;SDS011;52468;40.116;18.296;2024-02-28T11:20:10;7.27;;;2.97;;
51810;SDS011;52468;40.116;18.296;2024-02-28T11:22:42;8.80;;;2.77;;
51810;SDS011;52468;40.116;18.296;2024-02-28T11:25:10;5.13;;;3.10;;
51810;SDS011;52468;40.116;18.296;2024-02-28T11:27:48;3.50;;;2.30;;
51810;SDS011;52468;40.116;18.296;2024-02-28T11:30:16;4.50;;;3.10;;
51810;SDS011;52468;40.116;18.296;2024-02-28T11:32:44;6.23;;;2.23;;
51810;SDS011;52468;40.116;18.296;2024-02-28T11:35:12;6.73;;;2.50;;
51810;SDS011;52468;40.116;18.296;2024-02-28T11:37:41;7.57;;;2.37;;
51810;SDS011;52468;40.116;18.296;2024-02-28T11:40:11;2.77;;;1.77;;
51810;SDS011;52468;40.116;18.296;2024-02-28T11:42:40;3.80;;;1.57;;
51810;SDS011;52468;40.116;18.296;2024-02-28T11:45:11;4.03;;;1.90;;
51810;SDS011;52468;40.116;18.296;2024-02-28T11:47:44;4.43;;;2.40;;
51810;SDS011;52468;40.116;18.296;2024-02-28T11:50:13;6.07;;;1.80;;
51810;SDS011;52468;40.116;18.296;2024-02-28T11:52:47;5.63;;;2.10;;
51810;SDS011;52468;40.116;18.296;2024-02-28T11:55:16;5.00;;;2.60;;
51810;SDS011;52468;40.116;18.296;2024-02-28T11:57:49;4.07;;;1.90;;
51810;SDS011;52468;40.116;18.296;2024-02-28T12:00:18;3.53;;;1.90;;
51810;SDS011;52468;40.116;18.296;2024-02-28T12:02:46;7.70;;;2.03;;
51810;SDS011;52468;40.116;18.296;2024-02-28T12:05:16;5.87;;;2.53;;
51810;SDS011;52468;40.116;18.296;2024-02-28T12:07:44;6.90;;;2.03;;
51810;SDS011;52468;40.116;18.296;2024-02-28T12:10:11;5.67;;;2.47;;
51810;SDS011;52468;40.116;18.296;2024-02-28T12:12:41;6.27;;;3.33;;
51810;SDS011;52468;40.116;18.296;2024-02-28T12:15:12;5.80;;;2.33;;
51810;SDS011;52468;40.116;18.296;2024-02-28T12:17:42;5.03;;;2.27;;
51810;SDS011;52468;40.116;18.296;2024-02-28T12:20:10;3.27;;;2.27;;
51810;SDS011;52468;40.116;18.296;2024-02-28T12:22:38;4.17;;;2.40;;
51810;SDS011;52468;40.116;18.296;2024-02-28T12:25:06;3.77;;;1.80;;
51810;SDS011;52468;40.116;18.296;2024-02-28T12:27:36;3.33;;;1.87;;
51810;SDS011;52468;40.116;18.296;2024-02-28T12:30:06;2.73;;;1.50;;
51810;SDS011;52468;40.116;18.296;2024-02-28T12:32:36;4.27;;;2.00;;
51810;SDS011;52468;40.116;18.296;2024-02-28T12:35:05;7.30;;;2.50;;
51810;SDS011;52468;40.116;18.296;2024-02-28T12:37:34;7.60;;;2.47;;
51810;SDS011;52468;40.116;18.296;2024-02-28T12:40:02;7.07;;;2.20;;
51810;SDS011;52468;40.116;18.296;2024-02-28T12:42:32;3.00;;;2.00;;
51810;SDS011;52468;40.116;18.296;2024-02-28T12:45:00;6.93;;;2.67;;
51810;SDS011;52468;40.116;18.296;2024-02-28T12:47:29;5.47;;;1.83;;
51810;SDS011;52468;40.116;18.296;2024-02-28T12:49:58;5.07;;;1.73;;
51810;SDS011;52468;40.116;18.296;2024-02-28T12:52:26;3.10;;;1.67;;
51810;SDS011;52468;40.116;18.296;2024-02-28T12:54:54;4.60;;;1.90;;
51810;SDS011;52468;40.116;18.296;2024-02-28T12:57:22;3.63;;;1.60;;
51810;SDS011;52468;40.116;18.296;2024-02-28T12:59:50;4.10;;;1.50;;
51810;SDS011;52468;40.116;18.296;2024-02-28T13:02:18;5.93;;;2.20;;
51810;SDS011;52468;40.116;18.296;2024-02-28T13:04:46;8.40;;;2.40;;
51810;SDS011;52468;40.116;18.296;2024-02-28T13:07:14;2.47;;;1.70;;
51810;SDS011;52468;40.116;18.296;2024-02-28T13:09:43;4.67;;;2.30;;
51810;SDS011;52468;40.116;18.296;2024-02-28T13:12:11;4.53;;;2.23;;
51810;SDS011;52468;40.116;18.296;2024-02-28T13:14:38;6.63;;;1.93;;
51810;SDS011;52468;40.116;18.296;2024-02-28T13:17:06;6.07;;;1.90;;
51810;SDS011;52468;40.116;18.296;2024-02-28T13:19:34;6.07;;;2.47;;
51810;SDS011;52468;40.116;18.296;2024-02-28T13:22:03;1.90;;;1.60;;
51810;SDS011;52468;40.116;18.296;2024-02-28T13:24:31;4.90;;;1.67;;
51810;SDS011;52468;40.116;18.296;2024-02-28T13:26:59;4.97;;;2.07;;
51810;SDS011;52468;40.116;18.296;2024-02-28T13:29:27;6.07;;;2.07;;
51810;SDS011;52468;40.116;18.296;2024-02-28T13:31:55;7.17;;;1.93;;
51810;SDS011;52468;40.116;18.296;2024-02-28T13:34:23;5.13;;;1.87;;
51810;SDS011;52468;40.116;18.296;2024-02-28T13:36:51;2.63;;;1.57;;
51810;SDS011;52468;40.116;18.296;2024-02-28T13:39:19;4.07;;;1.20;;
51810;SDS011;52468;40.116;18.296;2024-02-28T13:41:47;5.77;;;2.13;;
51810;SDS011;52468;40.116;18.296;2024-02-28T13:44:18;2.00;;;1.50;;
51810;SDS011;52468;40.116;18.296;2024-02-28T13:46:46;3.40;;;1.23;;
51810;SDS011;52468;40.116;18.296;2024-02-28T13:49:15;3.50;;;1.43;;
51810;SDS011;52468;40.116;18.296;2024-02-28T13:51:46;1.50;;;1.00;;
51810;SDS011;52468;40.116;18.296;2024-02-28T13:54:16;4.10;;;1.77;;
51810;SDS011;52468;40.116;18.296;2024-02-28T13:56:44;7.10;;;2.70;;
51810;SDS011;52468;40.116;18.296;2024-02-28T13:59:12;4.87;;;2.27;;
51810;SDS011;52468;40.116;18.296;2024-02-28T14:01:40;3.97;;;1.67;;
51810;SDS011;52468;40.116;18.296;2024-02-28T14:04:08;3.13;;;1.80;;
51810;SDS011;52468;40.116;18.296;2024-02-28T14:06:36;2.27;;;1.53;;
51810;SDS011;52468;40.116;18.296;2024-02-28T14:09:04;1.77;;;1.50;;
51810;SDS011;52468;40.116;18.296;2024-02-28T14:11:33;1.67;;;1.20;;
51810;SDS011;52468;40.116;18.296;2024-02-28T14:14:01;5.60;;;1.23;;
51810;SDS011;52468;40.116;18.296;2024-02-28T14:16:29;4.00;;;1.57;;
51810;SDS011;52468;40.116;18.296;2024-02-28T14:18:59;5.73;;;1.93;;
51810;SDS011;52468;40.116;18.296;2024-02-28T14:21:27;3.83;;;1.73;;
51810;SDS011;52468;40.116;18.296;2024-02-28T14:23:55;5.73;;;2.20;;
51810;SDS011;52468;40.116;18.296;2024-02-28T14:26:23;5.33;;;1.97;;
51810;SDS011;52468;40.116;18.296;2024-02-28T14:28:51;4.73;;;1.40;;
51810;SDS011;52468;40.116;18.296;2024-02-28T14:31:19;5.73;;;1.60;;
51810;SDS011;52468;40.116;18.296;2024-02-28T14:33:47;2.77;;;1.93;;
51810;SDS011;52468;40.116;18.296;2024-02-28T14:36:15;4.17;;;2.30;;